Time;durP1;ratioP1;P1;durP2;ratioP2;P2;SDS_P1;SDS_P2;PMS_P1;PMS_P2;Temp;Humidity;BMP_temperature;BMP_pressure;BME280_temperature;BME280_humidity;BME280_pressure;Samples;Min_cycle;Max_cycle;Signal;HPM_P1;HPM_P2
2022/11/19 00:00:44;;;;;;;2.83;2.63;;;7.80;99.90;;;;;;5043650;28;20630;-89
2022/11/19 00:03:11;;;;;;;4.40;2.80;;;7.40;99.90;;;;;;5051726;28;20633;-89
2022/11/19 00:05:39;;;;;;;4.50;3.30;;;7.40;99.90;;;;;;5053480;28;20629;-89
2022/11/19 00:08:06;;;;;;;5.07;3.03;;;8.10;99.90;;;;;;5042421;28;20649;-88
2022/11/19 00:10:34;;;;;;;2.97;2.77;;;8.10;99.90;;;;;;5052432;28;20614;-89
2022/11/19 00:13:00;;;;;;;2.87;2.67;;;8.20;99.90;;;;;;5040647;28;20638;-88
2022/11/19 00:15:26;;;;;;;3.43;1.73;;;7.60;99.90;;;;;;5044075;28;21010;-88
2022/11/19 00:17:56;;;;;;;3.17;1.60;;;7.60;99.90;;;;;;5055234;28;20203;-89
2022/11/19 00:20:23;;;;;;;2.40;2.23;;;7.40;99.90;;;;;;5054150;28;20630;-88
2022/11/19 00:22:51;;;;;;;2.07;1.93;;;7.80;99.90;;;;;;5045710;28;20610;-88
2022/11/19 00:25:18;;;;;;;2.20;2.00;;;7.80;99.90;;;;;;5058070;28;20662;-89
2022/11/19 00:27:45;;;;;;;2.60;2.40;;;7.80;99.90;;;;;;5064845;28;20613;-88
2022/11/19 00:30:14;;;;;;;2.73;2.53;;;7.70;99.90;;;;;;5053656;28;20676;-88
2022/11/19 00:32:41;;;;;;;3.40;3.10;;;8.00;99.90;;;;;;5051488;28;20630;-88
2022/11/19 00:35:10;;;;;;;3.20;2.50;;;7.90;99.90;;;;;;5055079;28;20658;-89
2022/11/19 00:37:37;;;;;;;3.00;2.70;;;8.00;99.90;;;;;;5059114;28;20625;-88
2022/11/19 00:40:06;;;;;;;4.27;2.80;;;7.30;99.90;;;;;;5042917;28;20624;-88
2022/11/19 00:42:33;;;;;;;2.60;2.40;;;7.80;99.90;;;;;;5046382;28;20684;-89
2022/11/19 00:45:00;;;;;;;3.60;2.93;;;7.60;99.90;;;;;;5043835;28;20656;-90
2022/11/19 00:47:27;;;;;;;2.73;2.27;;;7.70;99.90;;;;;;5048494;28;20661;-89
2022/11/19 00:50:03;;;;;;;2.57;2.37;;;7.80;99.90;;;;;;5069968;28;20648;-88
2022/11/19 00:52:31;;;;;;;2.47;2.27;;;7.80;99.90;;;;;;5077045;28;20590;-88
2022/11/19 00:54:57;;;;;;;2.77;1.97;;;7.60;99.90;;;;;;5070962;28;20697;-87
2022/11/19 00:57:24;;;;;;;2.20;2.00;;;8.00;99.90;;;;;;5075937;28;20649;-87
2022/11/19 00:59:51;;;;;;;2.93;2.73;;;7.80;99.90;;;;;;5077946;28;20673;-88
2022/11/19 01:02:18;;;;;;;2.13;2.03;;;8.00;99.90;;;;;;5053722;28;20630;-88
2022/11/19 01:04:44;;;;;;;2.80;2.60;;;7.70;99.90;;;;;;5050700;28;21212;-88
2022/11/19 01:07:11;;;;;;;2.17;2.07;;;7.90;99.90;;;;;;5051260;28;20658;-88
2022/11/19 01:09:39;;;;;;;2.37;2.17;;;7.30;99.90;;;;;;5046416;28;20661;-88
2022/11/19 01:12:06;;;;;;;2.43;2.23;;;7.60;99.90;;;;;;5041225;28;20625;-88
2022/11/19 01:14:34;;;;;;;2.53;2.33;;;7.80;99.90;;;;;;5043507;28;20627;-88
2022/11/19 01:17:01;;;;;;;1.80;1.70;;;7.50;99.90;;;;;;5043964;28;20670;-88
2022/11/19 01:19:27;;;;;;;2.73;1.93;;;7.80;99.90;;;;;;5046933;28;20653;-88
2022/11/19 01:21:54;;;;;;;1.90;1.70;;;7.40;99.90;;;;;;5043752;28;20636;-88
2022/11/19 01:24:21;;;;;;;1.60;1.50;;;7.50;99.90;;;;;;5045953;28;20657;-88
2022/11/19 01:26:50;;;;;;;3.30;2.23;;;7.40;99.90;;;;;;5038251;28;20626;-88
2022/11/19 01:29:16;;;;;;;1.80;1.70;;;8.00;99.90;;;;;;5041482;28;20677;-88
2022/11/19 01:31:43;;;;;;;2.67;1.80;;;7.50;99.90;;;;;;5052445;28;20736;-88
2022/11/19 01:34:10;;;;;;;1.90;1.80;;;8.00;99.90;;;;;;5046154;28;20626;-89
2022/11/19 01:36:37;;;;;;;2.27;1.90;;;7.80;99.90;;;;;;5031569;28;20626;-88
2022/11/19 01:39:04;;;;;;;1.77;1.63;;;7.80;99.90;;;;;;5042954;28;20645;-88
2022/11/19 01:41:32;;;;;;;3.20;1.70;;;7.90;99.90;;;;;;5047085;28;20637;-88
2022/11/19 01:44:02;;;;;;;3.47;2.00;;;7.80;99.90;;;;;;5051562;28;21164;-89
2022/11/19 01:46:30;;;;;;;2.50;1.80;;;7.50;99.90;;;;;;5035606;28;21168;-89
2022/11/19 01:49:01;;;;;;;1.43;1.33;;;7.50;99.90;;;;;;5041100;28;20760;-88
2022/11/19 01:51:31;;;;;;;4.53;2.37;;;7.40;99.90;;;;;;5045055;28;20632;-88
2022/11/19 01:54:01;;;;;;;2.87;1.93;;;7.50;99.90;;;;;;5046595;28;21224;-88
2022/11/19 01:56:29;;;;;;;1.77;1.20;;;7.80;99.90;;;;;;5038810;28;20636;-89
2022/11/19 01:59:02;;;;;;;2.00;1.33;;;7.90;99.90;;;;;;5046111;28;20625;-89
2022/11/19 02:01:31;;;;;;;1.70;1.40;;;7.20;99.90;;;;;;5045951;28;21227;-88
2022/11/19 02:04:00;;;;;;;1.73;1.63;;;7.80;99.90;;;;;;5046326;28;20728;-88
2022/11/19 02:06:28;;;;;;;2.73;2.20;;;7.40;99.90;;;;;;5042597;28;20634;-88
2022/11/19 02:08:55;;;;;;;3.30;1.50;;;7.70;99.90;;;;;;5037404;28;20631;-88
2022/11/19 02:11:58;;;;;;;2.13;1.40;;;7.60;99.90;;;;;;5047073;28;20975;-88
2022/11/19 02:14:53;;;;;;;5.80;1.87;;;7.60;99.90;;;;;;5018173;28;20658;-89
2022/11/19 02:17:31;;;;;;;1.83;1.47;;;7.80;99.90;;;;;;5046720;28;20651;-88
2022/11/19 02:20:36;;;;;;;2.03;1.30;;;7.90;99.90;;;;;;5044309;28;20652;-88
2022/11/19 02:23:38;;;;;;;1.43;1.30;;;7.70;99.90;;;;;;5043652;28;20622;-88
2022/11/19 02:26:56;;;;;;;1.90;1.80;;;7.70;99.90;;;;;;5039867;28;20629;-88
2022/11/19 02:29:51;;;;;;;2.57;1.60;;;7.60;99.90;;;;;;5034077;28;20662;-88
2022/11/19 02:32:27;;;;;;;2.67;2.10;;;7.50;99.90;;;;;;5038013;28;20632;-88
2022/11/19 02:34:59;;;;;;;3.10;1.90;;;7.40;99.90;;;;;;5041682;28;20664;-88
2022/11/19 02:37:31;;;;;;;1.83;1.63;;;7.20;99.90;;;;;;5045810;28;20622;-87
2022/11/19 02:40:04;;;;;;;2.30;1.87;;;7.60;99.90;;;;;;5038299;28;20625;-88
2022/11/19 02:42:35;;;;;;;2.70;2.27;;;7.50;99.90;;;;;;5044661;28;20661;-88
2022/11/19 02:45:10;;;;;;;3.27;1.70;;;7.60;99.90;;;;;;5041115;28;20616;-88
2022/11/19 02:47:41;;;;;;;1.90;1.73;;;7.50;99.90;;;;;;5032061;28;20633;-88
2022/11/19 02:50:13;;;;;;;1.60;1.50;;;7.70;99.90;;;;;;5047095;28;21195;-88
2022/11/19 02:52:41;;;;;;;3.20;2.13;;;7.90;99.90;;;;;;5046511;28;20744;-88
2022/11/19 02:55:11;;;;;;;2.23;2.03;;;8.00;99.90;;;;;;5047722;28;20629;-88
2022/11/19 02:57:38;;;;;;;4.20;2.00;;;7.60;99.90;;;;;;5050199;28;20626;-88
2022/11/19 03:05:44;;;;;;;2.40;1.90;;;7.80;99.90;;;;;;5049424;28;20612;-88
2022/11/19 03:08:11;;;;;;;2.40;2.20;;;7.70;99.90;;;;;;5048288;28;20631;-88
2022/11/19 03:10:48;;;;;;;1.70;1.60;;;7.80;99.90;;;;;;5046179;28;20678;-88
2022/11/19 03:18:59;;;;;;;1.83;1.73;;;7.20;99.90;;;;;;5043880;28;20574;-88
2022/11/19 03:21:33;;;;;;;2.07;1.87;;;7.70;99.90;;;;;;5045990;28;20650;-88
2022/11/19 03:24:05;;;;;;;3.40;2.40;;;7.80;99.90;;;;;;5049916;28;20672;-88
2022/11/19 03:26:36;;;;;;;2.00;1.70;;;7.80;99.90;;;;;;5046307;28;20630;-88
2022/11/19 03:29:07;;;;;;;4.03;2.33;;;7.70;99.90;;;;;;5053956;28;20962;-89
2022/11/19 03:31:34;;;;;;;2.10;2.00;;;7.60;99.90;;;;;;5042214;28;20636;-89
2022/11/19 03:34:09;;;;;;;2.57;2.20;;;8.10;99.90;;;;;;5050057;28;20653;-89
2022/11/19 03:36:39;;;;;;;1.77;1.67;;;7.90;99.90;;;;;;5051102;28;21226;-89
2022/11/19 03:39:11;;;;;;;2.43;2.03;;;7.40;99.90;;;;;;5044246;28;21191;-89
2022/11/19 03:41:40;;;;;;;1.97;1.87;;;7.80;99.90;;;;;;5049637;28;20664;-88
2022/11/19 03:44:13;;;;;;;1.80;1.60;;;7.60;99.90;;;;;;5045057;28;20717;-88
2022/11/19 03:46:42;;;;;;;2.53;2.23;;;7.90;99.90;;;;;;5040033;28;20626;-88
2022/11/19 03:49:12;;;;;;;2.73;2.00;;;7.50;99.90;;;;;;5048219;28;20991;-89
2022/11/19 03:51:44;;;;;;;2.50;2.27;;;7.70;99.90;;;;;;5051114;28;20668;-87
2022/11/19 03:54:10;;;;;;;3.07;2.77;;;7.60;99.90;;;;;;5039154;28;20614;-88
2022/11/19 03:56:40;;;;;;;3.27;3.03;;;7.90;99.90;;;;;;5048189;28;21220;-88
2022/11/19 03:59:10;;;;;;;2.90;2.60;;;7.90;99.90;;;;;;5050588;28;20618;-89
2022/11/19 04:01:37;;;;;;;2.87;2.10;;;7.40;99.90;;;;;;5049733;28;20650;-88
2022/11/19 04:06:50;;;;;;;2.93;2.60;;;7.90;99.90;;;;;;5045128;28;20609;-88
2022/11/19 04:09:17;;;;;;;2.43;2.23;;;7.90;99.90;;;;;;5043072;28;20649;-88
2022/11/19 04:11:44;;;;;;;2.27;2.00;;;7.90;99.90;;;;;;5046772;28;20653;-88
2022/11/19 04:14:11;;;;;;;1.67;1.57;;;7.90;99.90;;;;;;5039092;28;20634;-88
2022/11/19 04:16:39;;;;;;;3.00;1.67;;;7.80;99.90;;;;;;5062141;28;20637;-89
2022/11/19 04:19:06;;;;;;;2.87;2.27;;;7.90;99.90;;;;;;5052111;28;20628;-88
2022/11/19 04:21:33;;;;;;;2.23;2.03;;;8.10;99.90;;;;;;5050918;28;20661;-88
2022/11/19 04:24:01;;;;;;;2.33;2.13;;;8.20;99.90;;;;;;5044465;28;20646;-88
2022/11/19 04:26:28;;;;;;;2.93;2.20;;;7.90;99.90;;;;;;5044260;28;20638;-88
2022/11/19 04:28:54;;;;;;;1.90;1.63;;;8.00;99.90;;;;;;5039400;28;20634;-88
2022/11/19 04:31:21;;;;;;;1.73;1.47;;;7.30;99.90;;;;;;5050563;28;20665;-89
2022/11/19 04:33:48;;;;;;;2.40;1.70;;;7.80;99.90;;;;;;5046144;28;20631;-88
2022/11/19 04:36:15;;;;;;;2.83;1.67;;;8.00;99.90;;;;;;5051243;28;20633;-88
2022/11/19 04:38:41;;;;;;;2.07;1.87;;;7.80;99.90;;;;;;5057750;28;21192;-89
2022/11/19 04:41:11;;;;;;;1.80;1.70;;;7.80;99.90;;;;;;5058702;28;20630;-89
2022/11/19 04:43:50;;;;;;;5.83;2.10;;;7.80;99.90;;;;;;5064960;28;20622;-88
2022/11/19 04:46:17;;;;;;;2.30;2.10;;;7.80;99.90;;;;;;5068281;28;20598;-89
2022/11/19 04:48:44;;;;;;;2.43;2.07;;;7.60;99.90;;;;;;5060941;28;20650;-88
2022/11/19 04:51:12;;;;;;;2.27;2.07;;;7.60;99.90;;;;;;5071392;28;20687;-88
2022/11/19 04:53:39;;;;;;;2.27;2.00;;;7.90;99.90;;;;;;5050586;28;20622;-88
2022/11/19 04:56:07;;;;;;;2.10;1.80;;;7.80;99.90;;;;;;5034072;28;20661;-88
2022/11/19 04:58:35;;;;;;;2.10;2.00;;;7.60;99.90;;;;;;5044921;28;20638;-89
2022/11/19 05:01:03;;;;;;;2.00;1.90;;;7.40;99.90;;;;;;5047004;28;21573;-88
2022/11/19 05:03:30;;;;;;;3.23;2.70;;;7.60;99.90;;;;;;5048431;28;20660;-88
2022/11/19 05:05:57;;;;;;;2.83;2.63;;;7.80;99.90;;;;;;5036149;28;20666;-88
2022/11/19 05:08:23;;;;;;;2.37;2.07;;;7.50;99.90;;;;;;5045928;28;20637;-88
2022/11/19 05:10:50;;;;;;;3.53;2.37;;;7.80;99.90;;;;;;5038626;28;20677;-88
2022/11/19 05:13:17;;;;;;;2.03;1.93;;;7.80;99.90;;;;;;5044308;28;20693;-88
2022/11/19 05:15:45;;;;;;;2.93;2.70;;;7.80;99.90;;;;;;5047312;28;20661;-89
2022/11/19 05:18:13;;;;;;;3.27;2.33;;;7.80;99.90;;;;;;5040843;28;21173;-88
2022/11/19 05:20:40;;;;;;;2.20;2.10;;;7.60;99.90;;;;;;5042667;28;20661;-88
2022/11/19 05:23:07;;;;;;;3.10;2.33;;;7.90;99.90;;;;;;5046634;28;20637;-87
2022/11/19 05:25:33;;;;;;;4.10;2.50;;;7.70;99.90;;;;;;5049169;28;20990;-88
2022/11/19 05:28:00;;;;;;;3.20;3.00;;;7.40;99.90;;;;;;5055663;28;20650;-89
2022/11/19 05:30:27;;;;;;;2.80;2.60;;;7.90;99.90;;;;;;5050909;28;20673;-89
2022/11/19 05:32:55;;;;;;;3.33;2.57;;;7.90;99.90;;;;;;5045952;28;20633;-88
2022/11/19 05:35:23;;;;;;;2.90;2.27;;;8.00;99.90;;;;;;5058871;28;20617;-88
2022/11/19 05:37:50;;;;;;;3.63;3.33;;;7.50;99.90;;;;;;5052127;28;20647;-88
2022/11/19 05:40:18;;;;;;;3.00;2.60;;;8.00;99.90;;;;;;5052514;28;20629;-88
2022/11/19 05:42:45;;;;;;;3.20;3.00;;;7.40;99.90;;;;;;5051278;28;20622;-88
2022/11/19 05:45:12;;;;;;;3.20;2.90;;;7.40;99.90;;;;;;5050739;28;20717;-88
2022/11/19 05:47:39;;;;;;;4.13;3.00;;;7.30;99.90;;;;;;5045980;28;20650;-88
2022/11/19 05:50:08;;;;;;;2.50;2.30;;;7.10;99.90;;;;;;5049329;28;21010;-88
2022/11/19 05:52:35;;;;;;;2.63;2.43;;;7.50;99.90;;;;;;5039025;28;20638;-88
2022/11/19 05:55:02;;;;;;;3.63;2.70;;;7.60;99.90;;;;;;5038086;28;20999;-88
2022/11/19 05:57:29;;;;;;;2.87;2.67;;;7.50;99.90;;;;;;5057695;28;20641;-89
2022/11/19 05:59:56;;;;;;;2.57;2.37;;;7.70;99.90;;;;;;5040179;28;20637;-88
2022/11/19 06:02:23;;;;;;;4.20;2.77;;;7.60;99.90;;;;;;5049196;28;20633;-88
2022/11/19 06:04:49;;;;;;;2.67;2.47;;;7.00;99.90;;;;;;5040775;28;20665;-88
2022/11/19 06:07:17;;;;;;;4.77;3.47;;;7.60;99.90;;;;;;5049429;28;20656;-87
2022/11/19 06:09:44;;;;;;;3.33;2.80;;;7.60;99.90;;;;;;5055950;28;20632;-88
2022/11/19 06:12:11;;;;;;;3.20;2.70;;;7.70;99.90;;;;;;5054193;28;20685;-88
2022/11/19 06:14:38;;;;;;;4.03;3.30;;;7.60;99.90;;;;;;5046645;28;20644;-88
2022/11/19 06:17:04;;;;;;;3.53;3.23;;;7.40;99.90;;;;;;5047312;28;20670;-88
2022/11/19 06:19:31;;;;;;;3.20;3.00;;;7.70;99.90;;;;;;5046225;28;20631;-88
2022/11/19 06:21:58;;;;;;;3.10;2.80;;;7.70;99.90;;;;;;5048438;28;20626;-88
2022/11/19 06:24:26;;;;;;;3.13;2.93;;;7.80;99.90;;;;;;5047972;28;20625;-88
2022/11/19 06:26:53;;;;;;;2.93;2.67;;;7.80;99.90;;;;;;5058800;28;20641;-88
2022/11/19 06:29:20;;;;;;;3.50;3.20;;;7.20;99.90;;;;;;5057173;28;20632;-88
2022/11/19 06:31:47;;;;;;;4.60;3.30;;;7.80;99.90;;;;;;5058652;28;20658;-88
2022/11/19 06:34:14;;;;;;;3.03;2.73;;;7.70;99.90;;;;;;5053162;28;21180;-87
2022/11/19 06:36:41;;;;;;;4.03;3.73;;;7.20;99.90;;;;;;5059031;28;21001;-87
2022/11/19 06:39:08;;;;;;;4.00;2.70;;;7.60;99.90;;;;;;5048339;28;20964;-87
2022/11/19 06:41:36;;;;;;;2.77;2.57;;;7.60;99.90;;;;;;5059483;28;20629;-88
2022/11/19 06:44:03;;;;;;;3.20;3.00;;;7.70;99.90;;;;;;5054665;28;20675;-88
2022/11/19 06:46:30;;;;;;;3.70;3.40;;;7.70;99.90;;;;;;5049660;28;20656;-90
2022/11/19 06:48:57;;;;;;;3.20;3.00;;;7.80;99.90;;;;;;5051823;28;20626;-87
2022/11/19 06:51:25;;;;;;;3.93;3.53;;;7.90;99.90;;;;;;5052090;28;20660;-87
2022/11/19 06:53:52;;;;;;;3.60;3.40;;;7.70;99.90;;;;;;5054889;28;20640;-88
2022/11/19 06:56:19;;;;;;;3.63;3.20;;;7.70;99.90;;;;;;5046791;28;20649;-88
2022/11/19 06:58:47;;;;;;;3.70;3.40;;;7.80;99.90;;;;;;5057298;28;20655;-88
2022/11/19 07:01:14;;;;;;;5.07;4.57;;;7.40;99.90;;;;;;5047798;28;20633;-87
2022/11/19 07:03:41;;;;;;;4.73;4.33;;;7.50;99.90;;;;;;5056601;28;20621;-88
2022/11/19 07:06:08;;;;;;;4.10;3.80;;;7.40;99.90;;;;;;5058836;28;20971;-88
2022/11/19 07:08:36;;;;;;;2.90;2.77;;;7.60;99.90;;;;;;5056467;28;20665;-88
2022/11/19 07:11:24;;;;;;;3.77;3.57;;;7.70;99.90;;;;;;5053985;28;21251;-88
2022/11/19 07:13:58;;;;;;;4.30;3.90;;;7.90;99.90;;;;;;5047990;28;20620;-88
2022/11/19 07:16:28;;;;;;;3.10;2.80;;;7.80;99.90;;;;;;5048563;28;21056;-88
2022/11/19 07:18:56;;;;;;;3.60;3.40;;;8.10;99.90;;;;;;5056181;28;20649;-88
2022/11/19 07:21:23;;;;;;;3.37;3.07;;;7.90;99.90;;;;;;5054457;28;20626;-88
2022/11/19 07:23:49;;;;;;;3.53;3.23;;;7.40;99.90;;;;;;5056246;28;20973;-89
2022/11/19 07:26:16;;;;;;;3.00;2.80;;;8.10;99.90;;;;;;5053492;28;20622;-88
2022/11/19 07:28:43;;;;;;;4.40;4.10;;;8.00;99.90;;;;;;5039435;28;20767;-89
2022/11/19 07:31:11;;;;;;;4.73;4.43;;;7.90;99.90;;;;;;5046368;28;20670;-88
2022/11/19 07:33:38;;;;;;;3.80;3.50;;;8.00;99.90;;;;;;5055327;28;20687;-89
2022/11/19 07:36:06;;;;;;;2.40;2.30;;;7.90;99.90;;;;;;5056137;28;20630;-88
2022/11/19 07:38:33;;;;;;;3.80;3.50;;;8.10;99.90;;;;;;5050984;28;21144;-89
2022/11/19 07:41:01;;;;;;;9.10;8.40;;;8.20;99.90;;;;;;5051832;28;20647;-89
2022/11/19 07:43:27;;;;;;;6.67;2.97;;;8.10;99.90;;;;;;5047162;28;20629;-88
2022/11/19 07:45:54;;;;;;;2.90;2.60;;;7.90;99.90;;;;;;5054462;28;20628;-88
2022/11/19 07:48:22;;;;;;;2.10;2.00;;;7.60;99.90;;;;;;5049759;28;20230;-88
2022/11/19 07:50:52;;;;;;;2.77;2.57;;;8.00;99.90;;;;;;5050239;28;20662;-87
2022/11/19 07:53:18;;;;;;;4.73;2.03;;;8.10;99.90;;;;;;5043801;28;21184;-88
2022/11/19 07:55:46;;;;;;;1.93;1.83;;;8.10;99.90;;;;;;5048030;28;20654;-87
2022/11/19 07:58:14;;;;;;;2.30;1.50;;;8.10;99.90;;;;;;5051238;28;20630;-87
2022/11/19 08:00:41;;;;;;;1.73;1.63;;;8.10;99.90;;;;;;5050426;28;21133;-87
2022/11/19 08:03:10;;;;;;;1.90;1.80;;;8.40;99.90;;;;;;5049185;28;20626;-88
2022/11/19 08:05:43;;;;;;;2.20;2.00;;;7.80;99.90;;;;;;5049796;28;20930;-87
2022/11/19 08:08:10;;;;;;;1.47;1.37;;;8.50;99.90;;;;;;5040992;28;20655;-88
2022/11/19 08:10:36;;;;;;;1.37;1.30;;;8.00;99.90;;;;;;5045292;28;20641;-88
2022/11/19 08:13:03;;;;;;;2.70;1.80;;;8.70;99.90;;;;;;5049536;28;20989;-88
2022/11/19 08:15:30;;;;;;;2.80;1.70;;;8.60;99.90;;;;;;5049624;28;20675;-89
2022/11/19 08:18:11;;;;;;;2.37;2.00;;;8.50;99.90;;;;;;5050387;28;20656;-88
2022/11/19 08:20:40;;;;;;;2.30;1.90;;;8.30;99.90;;;;;;5047292;28;21255;-89
2022/11/19 08:23:07;;;;;;;4.37;3.97;;;8.10;99.90;;;;;;5050558;28;20629;-89
2022/11/19 08:25:34;;;;;;;9.73;8.93;;;8.70;99.90;;;;;;5051993;28;20630;-89
2022/11/19 08:28:02;;;;;;;6.90;6.30;;;8.90;99.90;;;;;;5051240;28;20659;-88
2022/11/19 08:30:29;;;;;;;2.13;2.03;;;8.00;99.90;;;;;;5049371;28;20617;-88
2022/11/19 08:32:56;;;;;;;5.80;5.27;;;8.50;99.90;;;;;;5045481;28;20634;-89
2022/11/19 08:35:23;;;;;;;6.47;5.97;;;8.50;99.90;;;;;;5049730;28;21190;-89
2022/11/19 08:37:51;;;;;;;4.00;3.70;;;8.40;99.90;;;;;;5050734;28;20625;-90
2022/11/19 08:40:19;;;;;;;3.40;3.00;;;8.60;99.90;;;;;;5045050;28;21154;-89
2022/11/19 08:43:00;;;;;;;3.03;2.83;;;8.70;99.90;;;;;;5046604;28;20638;-88
2022/11/19 08:45:28;;;;;;;3.40;3.10;;;8.50;99.90;;;;;;5048348;28;20609;-88
2022/11/19 08:47:56;;;;;;;3.23;2.87;;;8.10;99.90;;;;;;5046887;28;21238;-88
2022/11/19 08:50:24;;;;;;;3.87;3.33;;;8.40;99.90;;;;;;5052041;28;20729;-88
2022/11/19 08:52:56;;;;;;;6.90;6.30;;;8.20;99.90;;;;;;5049162;28;20653;-89
2022/11/19 08:55:23;;;;;;;5.77;4.20;;;8.00;99.90;;;;;;5038929;28;20629;-90
2022/11/19 08:57:50;;;;;;;3.57;3.00;;;8.10;99.90;;;;;;5052062;28;20629;-89
2022/11/19 09:00:19;;;;;;;3.97;3.60;;;8.20;99.90;;;;;;5049524;28;20621;-88
2022/11/19 09:02:46;;;;;;;3.63;2.80;;;8.60;99.90;;;;;;5048709;28;20621;-87
2022/11/19 09:05:13;;;;;;;4.93;2.90;;;8.20;99.90;;;;;;5041543;28;21004;-86
2022/11/19 09:07:40;;;;;;;3.57;3.03;;;8.20;99.90;;;;;;5049474;28;20634;-85
2022/11/19 09:10:09;;;;;;;2.70;2.30;;;8.50;99.90;;;;;;5049444;28;20648;-86
2022/11/19 09:12:36;;;;;;;2.67;2.47;;;9.00;99.90;;;;;;5049289;28;20727;-87
2022/11/19 09:15:04;;;;;;;2.40;2.20;;;8.50;99.90;;;;;;5046600;28;20657;-86
2022/11/19 09:17:30;;;;;;;2.03;1.80;;;9.30;99.90;;;;;;5047386;28;20630;-85
2022/11/19 09:19:57;;;;;;;2.30;2.10;;;8.90;99.90;;;;;;5044039;28;20653;-85
2022/11/19 09:22:24;;;;;;;2.77;1.77;;;9.60;99.90;;;;;;5042044;28;20652;-86
2022/11/19 09:24:51;;;;;;;3.70;3.40;;;10.00;99.90;;;;;;5045715;28;20629;-85
2022/11/19 09:27:19;;;;;;;1.60;0.97;;;9.60;99.90;;;;;;5047642;28;20646;-86
2022/11/19 09:29:46;;;;;;;1.33;1.10;;;9.80;99.90;;;;;;5046000;28;20669;-86
2022/11/19 09:32:13;;;;;;;2.10;1.83;;;9.90;99.90;;;;;;5046299;28;20669;-86
2022/11/19 09:34:41;;;;;;;1.40;1.30;;;9.90;99.90;;;;;;5046141;28;20713;-86
2022/11/19 09:37:08;;;;;;;1.50;1.40;;;9.70;99.90;;;;;;5046842;28;20618;-86
2022/11/19 09:39:35;;;;;;;1.93;1.53;;;9.90;99.90;;;;;;5047822;28;20752;-88
2022/11/19 09:42:13;;;;;;;1.43;1.33;;;9.60;99.90;;;;;;5047750;28;20625;-87
2022/11/19 09:45:02;;;;;;;2.00;1.67;;;9.70;99.90;;;;;;5046478;28;20657;-86
2022/11/19 09:47:40;;;;;;;1.20;1.17;;;9.90;99.90;;;;;;5037803;28;20627;-87
2022/11/19 09:50:13;;;;;;;1.10;1.00;;;9.90;99.90;;;;;;5045429;28;21034;-87
2022/11/19 09:52:45;;;;;;;1.77;1.10;;;9.90;99.90;;;;;;5036649;28;21201;-86
2022/11/19 09:55:18;;;;;;;1.13;0.93;;;10.00;99.90;;;;;;5045468;28;20684;-87
2022/11/19 09:57:49;;;;;;;1.90;1.40;;;9.90;99.90;;;;;;5041098;28;20637;-86
2022/11/19 10:00:20;;;;;;;0.80;0.77;;;9.90;99.90;;;;;;5044640;28;20682;-88
2022/11/19 10:02:47;;;;;;;1.40;1.23;;;10.00;99.90;;;;;;5039593;28;20650;-86
2022/11/19 10:05:28;;;;;;;1.20;0.90;;;9.40;99.90;;;;;;5037193;28;20646;-86
2022/11/19 10:08:03;;;;;;;1.63;1.20;;;9.80;99.90;;;;;;5043660;28;20629;-87
2022/11/19 10:10:40;;;;;;;1.60;1.50;;;9.80;99.90;;;;;;5038366;28;20619;-86
2022/11/19 10:13:30;;;;;;;1.07;1.07;;;9.90;99.90;;;;;;5038643;28;21254;-86
2022/11/19 10:16:11;;;;;;;0.80;0.80;;;9.30;99.90;;;;;;5044136;28;20670;-86
2022/11/19 10:18:47;;;;;;;1.17;1.10;;;9.40;99.90;;;;;;5046628;28;20640;-87
2022/11/19 10:21:18;;;;;;;1.50;0.87;;;9.30;99.90;;;;;;5038052;28;20587;-87
2022/11/19 10:23:49;;;;;;;1.00;0.90;;;9.60;99.90;;;;;;5045258;28;20644;-86
2022/11/19 10:26:18;;;;;;;1.00;1.00;;;9.70;99.90;;;;;;5046282;28;20692;-87
2022/11/19 10:28:52;;;;;;;1.23;1.13;;;9.60;99.90;;;;;;5046693;28;20625;-87
2022/11/19 10:31:28;;;;;;;1.60;1.50;;;9.40;99.90;;;;;;5044843;28;20967;-87
2022/11/19 10:33:59;;;;;;;4.47;2.13;;;9.50;99.90;;;;;;5046075;28;20630;-87
2022/11/19 10:36:32;;;;;;;1.53;1.20;;;9.30;99.90;;;;;;5037973;28;20673;-88
2022/11/19 10:39:06;;;;;;;1.87;1.33;;;9.60;99.90;;;;;;5034109;28;20629;-88
2022/11/19 10:41:37;;;;;;;2.67;1.40;;;9.40;99.90;;;;;;5044712;28;20725;-87
2022/11/19 10:44:36;;;;;;;1.70;1.57;;;9.90;99.90;;;;;;5042045;28;20619;-85
2022/11/19 10:47:05;;;;;;;2.90;1.60;;;9.40;99.90;;;;;;5043869;28;20716;-86
2022/11/19 10:49:38;;;;;;;2.07;1.30;;;9.50;99.90;;;;;;5038060;28;20637;-85
2022/11/19 10:52:08;;;;;;;1.97;1.77;;;9.80;99.90;;;;;;5044310;28;21760;-87
2022/11/19 10:54:36;;;;;;;4.77;2.00;;;10.20;99.90;;;;;;5036797;28;20662;-87
2022/11/19 10:57:04;;;;;;;3.90;2.70;;;10.40;99.90;;;;;;5039632;28;20634;-87
2022/11/19 10:59:32;;;;;;;5.27;3.30;;;9.90;99.90;;;;;;5042368;28;20630;-87
2022/11/19 11:02:03;;;;;;;2.60;2.07;;;9.80;99.90;;;;;;5044626;28;20994;-86
2022/11/19 11:04:31;;;;;;;3.40;1.67;;;10.00;99.90;;;;;;5046557;28;21184;-87
2022/11/19 11:07:00;;;;;;;3.00;1.70;;;9.50;99.90;;;;;;5045068;28;21180;-86
2022/11/19 11:09:32;;;;;;;5.80;3.80;;;9.70;99.90;;;;;;5049429;28;20645;-89
2022/11/19 11:14:55;;;;;;;3.40;2.20;;;9.60;99.90;;;;;;5050902;28;20644;-86
2022/11/19 11:17:25;;;;;;;5.13;2.10;;;9.30;99.90;;;;;;5052395;28;20653;-88
2022/11/19 11:19:58;;;;;;;2.50;2.30;;;9.40;99.90;;;;;;5049362;28;21175;-86
2022/11/19 11:22:26;;;;;;;3.10;1.70;;;9.50;99.90;;;;;;5048076;28;20622;-87
2022/11/19 11:24:53;;;;;;;3.00;1.80;;;9.70;99.90;;;;;;5045698;28;20657;-87
2022/11/19 11:27:22;;;;;;;2.73;2.03;;;9.50;99.90;;;;;;5049623;28;20629;-86
2022/11/19 11:29:49;;;;;;;3.17;2.00;;;8.90;99.90;;;;;;5045651;28;20618;-86
2022/11/19 11:32:36;;;;;;;2.70;1.67;;;8.90;99.90;;;;;;5043404;28;20661;-86
2022/11/19 11:35:06;;;;;;;3.50;2.00;;;9.10;99.90;;;;;;5043647;28;20680;-86
2022/11/19 11:37:33;;;;;;;2.70;2.10;;;9.30;99.90;;;;;;5042748;28;20630;-86
2022/11/19 11:40:01;;;;;;;2.20;1.37;;;9.40;99.90;;;;;;5045901;28;20622;-86
2022/11/19 11:42:29;;;;;;;2.83;2.30;;;9.50;99.90;;;;;;5049084;28;20622;-86
2022/11/19 11:44:58;;;;;;;1.40;1.30;;;9.20;99.90;;;;;;5045859;28;20649;-86
2022/11/19 11:47:28;;;;;;;4.03;2.93;;;9.30;99.90;;;;;;5051528;28;20648;-86
2022/11/19 11:50:07;;;;;;;1.50;1.20;;;9.50;99.90;;;;;;5052252;28;21056;-87
2022/11/19 11:52:40;;;;;;;4.13;1.00;;;9.70;99.90;;;;;;5038967;28;20661;-87
2022/11/19 11:55:14;;;;;;;6.73;6.03;;;9.00;99.90;;;;;;5047291;28;20654;-86
2022/11/19 11:57:52;;;;;;;2.20;1.27;;;9.50;99.90;;;;;;5046648;28;20669;-86
2022/11/19 12:00:35;;;;;;;1.93;1.10;;;9.20;99.90;;;;;;5046695;28;20963;-86
2022/11/19 12:03:04;;;;;;;5.47;1.50;;;9.30;99.90;;;;;;5047469;28;20622;-86
2022/11/19 12:05:43;;;;;;;2.50;1.40;;;9.00;99.90;;;;;;5049786;28;20661;-87
2022/11/19 12:08:19;;;;;;;1.40;1.20;;;9.50;99.90;;;;;;5049596;28;20634;-86
2022/11/19 12:10:52;;;;;;;1.40;1.10;;;9.20;99.90;;;;;;5048002;28;21199;-87
2022/11/19 12:13:46;;;;;;;1.77;1.40;;;9.50;99.90;;;;;;5046459;28;20669;-86
2022/11/19 12:16:21;;;;;;;1.27;1.17;;;9.20;99.90;;;;;;5045834;28;20711;-85
2022/11/19 12:19:00;;;;;;;2.27;1.67;;;9.50;99.90;;;;;;5048375;28;20620;-86
2022/11/19 12:21:36;;;;;;;4.83;1.63;;;9.30;99.90;;;;;;5045720;28;20625;-87
2022/11/19 12:24:20;;;;;;;2.40;2.20;;;9.20;99.90;;;;;;5044622;28;20641;-86
2022/11/19 12:26:55;;;;;;;3.23;2.93;;;9.50;99.90;;;;;;5045228;28;20653;-87
2022/11/19 12:29:28;;;;;;;3.13;2.30;;;9.20;99.90;;;;;;5046123;28;20647;-87
2022/11/19 12:32:09;;;;;;;1.87;1.77;;;8.90;99.90;;;;;;5044575;28;20626;-86
2022/11/19 12:34:53;;;;;;;3.30;1.73;;;8.80;99.90;;;;;;5046679;28;20627;-87
2022/11/19 12:37:33;;;;;;;2.30;1.60;;;9.10;99.90;;;;;;5041228;28;20610;-88
2022/11/19 12:40:10;;;;;;;1.27;1.10;;;9.20;99.90;;;;;;5042844;28;20635;-87
2022/11/19 12:42:53;;;;;;;2.50;1.50;;;8.80;99.90;;;;;;5046360;28;21035;-87
2022/11/19 12:45:26;;;;;;;3.13;1.50;;;8.90;99.90;;;;;;5041636;28;20628;-87
2022/11/19 12:48:15;;;;;;;2.23;1.63;;;9.10;99.90;;;;;;5040841;28;20646;-87
2022/11/19 12:50:51;;;;;;;2.20;1.33;;;8.80;99.90;;;;;;5046359;28;20656;-87
2022/11/19 12:53:31;;;;;;;2.30;1.57;;;8.90;99.90;;;;;;5046312;28;20689;-85
2022/11/19 12:56:06;;;;;;;2.93;1.33;;;8.70;99.90;;;;;;5044722;28;20919;-85
2022/11/19 12:58:43;;;;;;;2.27;1.27;;;8.90;99.90;;;;;;5045716;28;21512;-87
2022/11/19 13:01:15;;;;;;;1.97;1.50;;;8.80;99.90;;;;;;5046501;28;20686;-87
2022/11/19 13:03:54;;;;;;;1.57;1.30;;;8.50;99.90;;;;;;5043134;28;21000;-86
2022/11/19 13:06:24;;;;;;;2.00;1.20;;;8.80;99.90;;;;;;5047948;28;20663;-87
2022/11/19 13:08:58;;;;;;;2.83;1.57;;;9.00;99.90;;;;;;5047055;28;21175;-87
2022/11/19 13:11:35;;;;;;;2.13;1.93;;;8.80;99.90;;;;;;5029988;28;21003;-87
2022/11/19 13:14:07;;;;;;;2.23;1.80;;;8.50;99.90;;;;;;5046069;28;20660;-87
2022/11/19 13:16:34;;;;;;;3.17;2.47;;;8.80;99.90;;;;;;5045919;28;20657;-86
2022/11/19 13:19:12;;;;;;;2.80;2.30;;;8.80;99.90;;;;;;5045679;28;20633;-86
2022/11/19 13:21:45;;;;;;;2.83;2.60;;;8.70;99.90;;;;;;5042575;28;20637;-87
2022/11/19 13:24:28;;;;;;;2.33;2.13;;;8.50;99.90;;;;;;5044427;28;20626;-87
2022/11/19 13:27:01;;;;;;;2.80;2.10;;;8.80;99.90;;;;;;5033588;28;20679;-87
2022/11/19 13:29:35;;;;;;;1.90;1.80;;;8.40;99.90;;;;;;5043846;28;20804;-87
2022/11/19 13:32:10;;;;;;;1.40;1.30;;;8.80;99.90;;;;;;5050887;28;20648;-88